Fecha, hora, temperatura, viento dirección y velocidad, humedad y presión.

  • 12-12-2018 17:00:00 | 11.80°C | Nordeste |3.00 km/h | 74.00% | 0.00 hPa
  • 12-12-2018 16:00:00 | 12.00°C | Este |2.00 km/h | 73.00% | 0.00 hPa
  • 12-12-2018 15:00:00 | 11.90°C | Calma |0.00 km/h | 74.00% | 0.00 hPa
  • 12-12-2018 13:00:00 | 0.00°C | 0 |0.00 km/h | 0.00% | 0.00 hPa
  • 12-12-2018 12:00:00 | 9.40°C | Calma |0.00 km/h | 78.00% | 0.00 hPa
  • 12-12-2018 12:00:00 | 9.40°C | Calma |0.00 km/h | 78.00% | 0.00 hPa
  • 12-12-2018 11:00:00 | 8.10°C | Este |3.00 km/h | 82.00% | 0.00 hPa
  • 12-12-2018 10:00:00 | 7.50°C | Nordeste |3.00 km/h | 84.00% | 0.00 hPa
  • 12-12-2018 09:00:00 | 7.50°C | Nordeste |2.00 km/h | 83.00% | 0.00 hPa
  • 12-12-2018 08:00:00 | 7.70°C | Nordeste |3.00 km/h | 83.00% | 0.00 hPa
  • 12-12-2018 06:00:00 | 7.80°C | Calma |0.00 km/h | 80.00% | 0.00 hPa
  • 12-12-2018 05:00:00 | 7.80°C | Sudeste |3.00 km/h | 78.00% | 0.00 hPa
  • 12-12-2018 04:00:00 | 7.80°C | Este |4.00 km/h | 79.00% | 0.00 hPa
  • 12-12-2018 03:00:00 | 7.90°C | Nordeste |2.00 km/h | 82.00% | 0.00 hPa
  • 12-12-2018 02:00:00 | 8.00°C | Nordeste |3.00 km/h | 83.00% | 0.00 hPa
  • 12-12-2018 01:00:00 | 8.10°C | Este |5.00 km/h | 84.00% | 0.00 hPa
  • 12-12-2018 00:00:00 | 7.90°C | Nordeste |3.00 km/h | 87.00% | 0.00 hPa
  • 11-12-2018 23:00:00 | 6.60°C | Calma |0.00 km/h | 96.00% | 0.00 hPa
  • 11-12-2018 22:00:00 | 6.20°C | Calma |0.00 km/h | 96.00% | 0.00 hPa
  • 11-12-2018 21:00:00 | 6.80°C | Este |2.00 km/h | 93.00% | 0.00 hPa
  • 11-12-2018 20:00:00 | 8.00°C | Calma |0.00 km/h | 89.00% | 0.00 hPa
  • 11-12-2018 19:00:00 | 9.80°C | Calma |0.00 km/h | 83.00% | 0.00 hPa
  • 11-12-2018 18:00:00 | 12.10°C | Calma |0.00 km/h | 72.00% | 0.00 hPa
  • 11-12-2018 17:00:00 | 13.30°C | Sur |3.00 km/h | 73.00% | 0.00 hPa
    • diseño web asturias Información sobre el estado de las mareas, altura de la marejada, temperatura del agua y otros datos de Gijón en Asturias.

      Surf Gijón